sensor_id;sensor_type;location;lat;lon;timestamp;P1;durP1;ratioP1;P2;durP2;ratioP2
81685;SDS011;71102;50.960;6.888;2023-12-14T00:00:42;26.80;;;12.03;;
81685;SDS011;71102;50.960;6.888;2023-12-14T00:03:07;27.80;;;12.97;;
81685;SDS011;71102;50.960;6.888;2023-12-14T00:05:32;24.07;;;11.07;;
81685;SDS011;71102;50.960;6.888;2023-12-14T00:07:57;24.73;;;11.80;;
81685;SDS011;71102;50.960;6.888;2023-12-14T00:10:22;33.27;;;13.37;;
81685;SDS011;71102;50.960;6.888;2023-12-14T00:12:47;31.03;;;13.60;;
81685;SDS011;71102;50.960;6.888;2023-12-14T00:15:13;35.83;;;14.13;;
81685;SDS011;71102;50.960;6.888;2023-12-14T00:17:38;32.53;;;14.33;;
81685;SDS011;71102;50.960;6.888;2023-12-14T00:20:03;37.33;;;14.60;;
81685;SDS011;71102;50.960;6.888;2023-12-14T00:22:28;32.80;;;12.85;;
81685;SDS011;71102;50.960;6.888;2023-12-14T00:24:54;34.40;;;13.43;;
81685;SDS011;71102;50.960;6.888;2023-12-14T00:27:19;36.00;;;13.80;;
81685;SDS011;71102;50.960;6.888;2023-12-14T00:29:44;38.30;;;14.07;;
81685;SDS011;71102;50.960;6.888;2023-12-14T00:32:09;33.33;;;14.17;;
81685;SDS011;71102;50.960;6.888;2023-12-14T00:34:34;34.57;;;13.33;;
81685;SDS011;71102;50.960;6.888;2023-12-14T00:37:00;33.57;;;13.63;;
81685;SDS011;71102;50.960;6.888;2023-12-14T00:39:25;35.90;;;14.57;;
81685;SDS011;71102;50.960;6.888;2023-12-14T00:41:50;33.40;;;14.37;;
81685;SDS011;71102;50.960;6.888;2023-12-14T00:44:15;29.53;;;13.33;;
81685;SDS011;71102;50.960;6.888;2023-12-14T00:46:40;36.27;;;14.53;;
81685;SDS011;71102;50.960;6.888;2023-12-14T00:49:06;34.90;;;13.93;;
81685;SDS011;71102;50.960;6.888;2023-12-14T00:51:31;34.10;;;14.37;;
81685;SDS011;71102;50.960;6.888;2023-12-14T00:53:56;31.83;;;13.77;;
81685;SDS011;71102;50.960;6.888;2023-12-14T00:56:21;34.73;;;13.93;;
81685;SDS011;71102;50.960;6.888;2023-12-14T00:58:46;31.23;;;13.27;;
81685;SDS011;71102;50.960;6.888;2023-12-14T01:01:12;34.10;;;13.33;;
81685;SDS011;71102;50.960;6.888;2023-12-14T01:03:37;31.83;;;13.57;;
81685;SDS011;71102;50.960;6.888;2023-12-14T01:06:02;32.60;;;13.40;;
81685;SDS011;71102;50.960;6.888;2023-12-14T01:08:28;33.85;;;14.13;;
81685;SDS011;71102;50.960;6.888;2023-12-14T01:10:53;34.13;;;14.57;;
81685;SDS011;71102;50.960;6.888;2023-12-14T01:13:18;34.67;;;14.17;;
81685;SDS011;71102;50.960;6.888;2023-12-14T01:15:43;35.07;;;14.23;;
81685;SDS011;71102;50.960;6.888;2023-12-14T01:18:09;37.08;;;14.13;;
81685;SDS011;71102;50.960;6.888;2023-12-14T01:20:34;32.05;;;13.88;;
81685;SDS011;71102;50.960;6.888;2023-12-14T01:22:59;33.93;;;14.13;;
81685;SDS011;71102;50.960;6.888;2023-12-14T01:25:25;40.43;;;16.50;;
81685;SDS011;71102;50.960;6.888;2023-12-14T01:27:50;38.40;;;16.17;;
81685;SDS011;71102;50.960;6.888;2023-12-14T01:30:15;39.17;;;15.03;;
81685;SDS011;71102;50.960;6.888;2023-12-14T01:32:40;39.72;;;15.35;;
81685;SDS011;71102;50.960;6.888;2023-12-14T01:35:06;39.27;;;16.47;;
81685;SDS011;71102;50.960;6.888;2023-12-14T01:37:31;35.30;;;14.98;;
81685;SDS011;71102;50.960;6.888;2023-12-14T01:39:56;41.60;;;16.67;;
81685;SDS011;71102;50.960;6.888;2023-12-14T01:42:22;37.80;;;15.82;;
81685;SDS011;71102;50.960;6.888;2023-12-14T01:44:47;38.63;;;16.33;;
81685;SDS011;71102;50.960;6.888;2023-12-14T01:47:12;38.67;;;16.63;;
81685;SDS011;71102;50.960;6.888;2023-12-14T01:49:37;38.27;;;15.97;;
81685;SDS011;71102;50.960;6.888;2023-12-14T01:52:03;37.77;;;16.17;;
81685;SDS011;71102;50.960;6.888;2023-12-14T01:54:28;37.37;;;16.27;;
81685;SDS011;71102;50.960;6.888;2023-12-14T01:56:53;34.67;;;16.20;;
81685;SDS011;71102;50.960;6.888;2023-12-14T01:59:18;34.90;;;14.77;;
81685;SDS011;71102;50.960;6.888;2023-12-14T02:01:46;36.78;;;14.80;;
81685;SDS011;71102;50.960;6.888;2023-12-14T02:04:11;37.10;;;16.33;;
81685;SDS011;71102;50.960;6.888;2023-12-14T02:06:37;34.97;;;15.27;;
81685;SDS011;71102;50.960;6.888;2023-12-14T02:09:02;33.20;;;16.03;;
81685;SDS011;71102;50.960;6.888;2023-12-14T02:11:27;34.27;;;14.20;;
81685;SDS011;71102;50.960;6.888;2023-12-14T02:13:53;33.10;;;13.97;;
81685;SDS011;71102;50.960;6.888;2023-12-14T02:16:18;33.60;;;14.43;;
81685;SDS011;71102;50.960;6.888;2023-12-14T02:18:43;36.73;;;16.43;;
81685;SDS011;71102;50.960;6.888;2023-12-14T02:21:08;36.50;;;15.60;;
81685;SDS011;71102;50.960;6.888;2023-12-14T02:23:33;41.20;;;16.43;;
81685;SDS011;71102;50.960;6.888;2023-12-14T02:25:58;36.43;;;15.70;;
81685;SDS011;71102;50.960;6.888;2023-12-14T02:28:24;38.27;;;15.73;;
81685;SDS011;71102;50.960;6.888;2023-12-14T02:30:49;33.63;;;16.13;;
81685;SDS011;71102;50.960;6.888;2023-12-14T02:33:14;35.93;;;16.23;;
81685;SDS011;71102;50.960;6.888;2023-12-14T02:35:40;34.77;;;14.07;;
81685;SDS011;71102;50.960;6.888;2023-12-14T02:38:05;31.98;;;14.45;;
81685;SDS011;71102;50.960;6.888;2023-12-14T02:40:30;31.37;;;13.77;;
81685;SDS011;71102;50.960;6.888;2023-12-14T02:42:55;32.00;;;13.73;;
81685;SDS011;71102;50.960;6.888;2023-12-14T02:45:20;30.87;;;14.73;;
81685;SDS011;71102;50.960;6.888;2023-12-14T02:47:46;32.07;;;12.90;;
81685;SDS011;71102;50.960;6.888;2023-12-14T02:50:11;28.20;;;12.67;;
81685;SDS011;71102;50.960;6.888;2023-12-14T02:52:36;27.10;;;12.37;;
81685;SDS011;71102;50.960;6.888;2023-12-14T02:55:01;26.40;;;11.80;;
81685;SDS011;71102;50.960;6.888;2023-12-14T02:57:26;26.23;;;12.03;;
81685;SDS011;71102;50.960;6.888;2023-12-14T02:59:52;25.20;;;11.03;;
81685;SDS011;71102;50.960;6.888;2023-12-14T03:02:17;27.43;;;12.37;;
81685;SDS011;71102;50.960;6.888;2023-12-14T03:04:42;26.77;;;11.87;;
81685;SDS011;71102;50.960;6.888;2023-12-14T03:07:07;27.03;;;12.00;;
81685;SDS011;71102;50.960;6.888;2023-12-14T03:09:33;27.33;;;11.73;;
81685;SDS011;71102;50.960;6.888;2023-12-14T03:11:58;30.10;;;12.60;;
81685;SDS011;71102;50.960;6.888;2023-12-14T03:14:24;28.38;;;12.30;;
81685;SDS011;71102;50.960;6.888;2023-12-14T03:16:49;26.10;;;11.57;;
81685;SDS011;71102;50.960;6.888;2023-12-14T03:19:15;27.97;;;11.87;;
81685;SDS011;71102;50.960;6.888;2023-12-14T03:21:40;24.63;;;11.57;;
81685;SDS011;71102;50.960;6.888;2023-12-14T03:24:05;25.90;;;11.37;;
81685;SDS011;71102;50.960;6.888;2023-12-14T03:26:30;24.67;;;11.80;;
81685;SDS011;71102;50.960;6.888;2023-12-14T03:28:55;25.20;;;10.70;;
81685;SDS011;71102;50.960;6.888;2023-12-14T03:31:21;23.53;;;11.57;;
81685;SDS011;71102;50.960;6.888;2023-12-14T03:33:46;24.10;;;11.77;;
81685;SDS011;71102;50.960;6.888;2023-12-14T03:36:11;24.83;;;11.87;;
81685;SDS011;71102;50.960;6.888;2023-12-14T03:38:36;29.70;;;12.97;;
81685;SDS011;71102;50.960;6.888;2023-12-14T03:41:01;25.87;;;11.27;;
81685;SDS011;71102;50.960;6.888;2023-12-14T03:43:27;27.10;;;12.13;;
81685;SDS011;71102;50.960;6.888;2023-12-14T03:45:52;26.87;;;11.50;;
81685;SDS011;71102;50.960;6.888;2023-12-14T03:48:17;24.27;;;10.20;;
81685;SDS011;71102;50.960;6.888;2023-12-14T03:50:42;24.37;;;11.60;;
81685;SDS011;71102;50.960;6.888;2023-12-14T03:53:07;22.10;;;10.07;;
81685;SDS011;71102;50.960;6.888;2023-12-14T03:55:33;22.57;;;11.63;;
81685;SDS011;71102;50.960;6.888;2023-12-14T03:57:58;20.13;;;10.02;;
81685;SDS011;71102;50.960;6.888;2023-12-14T04:00:23;23.87;;;11.50;;
81685;SDS011;71102;50.960;6.888;2023-12-14T04:02:49;23.67;;;11.23;;
81685;SDS011;71102;50.960;6.888;2023-12-14T04:05:14;24.07;;;11.83;;
81685;SDS011;71102;50.960;6.888;2023-12-14T04:07:39;19.63;;;10.47;;
81685;SDS011;71102;50.960;6.888;2023-12-14T04:10:04;21.47;;;10.30;;
81685;SDS011;71102;50.960;6.888;2023-12-14T04:12:30;24.35;;;11.40;;
81685;SDS011;71102;50.960;6.888;2023-12-14T04:14:55;23.97;;;11.50;;
81685;SDS011;71102;50.960;6.888;2023-12-14T04:17:20;26.67;;;11.93;;
81685;SDS011;71102;50.960;6.888;2023-12-14T04:19:45;26.60;;;13.30;;
81685;SDS011;71102;50.960;6.888;2023-12-14T04:22:10;29.13;;;13.70;;
81685;SDS011;71102;50.960;6.888;2023-12-14T04:24:36;32.63;;;14.47;;
81685;SDS011;71102;50.960;6.888;2023-12-14T04:27:01;33.50;;;15.20;;
81685;SDS011;71102;50.960;6.888;2023-12-14T04:29:26;36.73;;;18.03;;
81685;SDS011;71102;50.960;6.888;2023-12-14T04:31:51;35.27;;;17.93;;
81685;SDS011;71102;50.960;6.888;2023-12-14T04:34:16;33.33;;;17.17;;
81685;SDS011;71102;50.960;6.888;2023-12-14T04:36:42;36.77;;;17.10;;
81685;SDS011;71102;50.960;6.888;2023-12-14T04:39:07;35.33;;;16.48;;
81685;SDS011;71102;50.960;6.888;2023-12-14T04:41:32;35.88;;;17.45;;
81685;SDS011;71102;50.960;6.888;2023-12-14T04:43:58;41.23;;;18.83;;
81685;SDS011;71102;50.960;6.888;2023-12-14T04:46:23;38.90;;;17.57;;
81685;SDS011;71102;50.960;6.888;2023-12-14T04:48:48;48.43;;;19.97;;
81685;SDS011;71102;50.960;6.888;2023-12-14T04:51:13;46.03;;;21.07;;
81685;SDS011;71102;50.960;6.888;2023-12-14T04:53:39;42.30;;;19.23;;
81685;SDS011;71102;50.960;6.888;2023-12-14T04:56:04;46.78;;;19.50;;
81685;SDS011;71102;50.960;6.888;2023-12-14T04:58:29;44.47;;;18.65;;
81685;SDS011;71102;50.960;6.888;2023-12-14T05:00:54;44.60;;;19.20;;
81685;SDS011;71102;50.960;6.888;2023-12-14T05:03:20;39.57;;;18.17;;
81685;SDS011;71102;50.960;6.888;2023-12-14T05:05:45;43.07;;;18.10;;
81685;SDS011;71102;50.960;6.888;2023-12-14T05:08:10;42.87;;;18.60;;
81685;SDS011;71102;50.960;6.888;2023-12-14T05:10:35;42.17;;;17.43;;
81685;SDS011;71102;50.960;6.888;2023-12-14T05:13:01;49.53;;;17.50;;
81685;SDS011;71102;50.960;6.888;2023-12-14T05:15:27;39.00;;;16.67;;
81685;SDS011;71102;50.960;6.888;2023-12-14T05:17:54;37.28;;;17.25;;
81685;SDS011;71102;50.960;6.888;2023-12-14T05:20:20;38.20;;;16.75;;
81685;SDS011;71102;50.960;6.888;2023-12-14T05:22:45;41.07;;;17.70;;
81685;SDS011;71102;50.960;6.888;2023-12-14T05:25:10;34.90;;;16.50;;
81685;SDS011;71102;50.960;6.888;2023-12-14T05:27:35;36.97;;;16.87;;
81685;SDS011;71102;50.960;6.888;2023-12-14T05:30:00;37.20;;;15.40;;
81685;SDS011;71102;50.960;6.888;2023-12-14T05:32:26;33.87;;;15.13;;
81685;SDS011;71102;50.960;6.888;2023-12-14T05:34:51;32.27;;;15.07;;
81685;SDS011;71102;50.960;6.888;2023-12-14T05:37:16;29.97;;;14.77;;
81685;SDS011;71102;50.960;6.888;2023-12-14T05:39:41;27.37;;;14.93;;
81685;SDS011;71102;50.960;6.888;2023-12-14T05:42:07;32.13;;;15.88;;
81685;SDS011;71102;50.960;6.888;2023-12-14T05:44:32;31.53;;;15.43;;
81685;SDS011;71102;50.960;6.888;2023-12-14T05:46:57;32.17;;;15.00;;
81685;SDS011;71102;50.960;6.888;2023-12-14T05:49:22;33.00;;;15.60;;
81685;SDS011;71102;50.960;6.888;2023-12-14T05:51:47;32.73;;;15.23;;
81685;SDS011;71102;50.960;6.888;2023-12-14T05:54:13;30.93;;;13.87;;
81685;SDS011;71102;50.960;6.888;2023-12-14T05:56:38;28.80;;;14.67;;
81685;SDS011;71102;50.960;6.888;2023-12-14T05:59:03;30.57;;;14.07;;
81685;SDS011;71102;50.960;6.888;2023-12-14T06:01:28;37.03;;;14.73;;
81685;SDS011;71102;50.960;6.888;2023-12-14T06:03:53;32.67;;;14.57;;
81685;SDS011;71102;50.960;6.888;2023-12-14T06:06:19;30.87;;;14.40;;
81685;SDS011;71102;50.960;6.888;2023-12-14T06:08:44;27.97;;;13.50;;
81685;SDS011;71102;50.960;6.888;2023-12-14T06:11:10;31.58;;;14.15;;
81685;SDS011;71102;50.960;6.888;2023-12-14T06:13:35;31.70;;;14.30;;
81685;SDS011;71102;50.960;6.888;2023-12-14T06:16:00;32.57;;;14.43;;
81685;SDS011;71102;50.960;6.888;2023-12-14T06:18:25;28.97;;;14.50;;
81685;SDS011;71102;50.960;6.888;2023-12-14T06:20:50;29.67;;;12.40;;
81685;SDS011;71102;50.960;6.888;2023-12-14T06:23:16;30.80;;;13.80;;
81685;SDS011;71102;50.960;6.888;2023-12-14T06:25:41;30.10;;;14.23;;
81685;SDS011;71102;50.960;6.888;2023-12-14T06:28:06;30.30;;;14.10;;
81685;SDS011;71102;50.960;6.888;2023-12-14T06:30:31;30.90;;;13.37;;
81685;SDS011;71102;50.960;6.888;2023-12-14T06:32:56;30.10;;;14.33;;
81685;SDS011;71102;50.960;6.888;2023-12-14T06:35:22;35.50;;;15.53;;
81685;SDS011;71102;50.960;6.888;2023-12-14T06:37:47;32.47;;;14.63;;
81685;SDS011;71102;50.960;6.888;2023-12-14T06:40:12;35.65;;;15.48;;
81685;SDS011;71102;50.960;6.888;2023-12-14T06:42:38;37.08;;;15.85;;
81685;SDS011;71102;50.960;6.888;2023-12-14T06:45:03;42.93;;;15.97;;
81685;SDS011;71102;50.960;6.888;2023-12-14T06:47:28;38.20;;;15.68;;
81685;SDS011;71102;50.960;6.888;2023-12-14T06:49:53;43.87;;;16.83;;
81685;SDS011;71102;50.960;6.888;2023-12-14T06:52:19;40.03;;;15.87;;
81685;SDS011;71102;50.960;6.888;2023-12-14T06:54:44;43.30;;;17.33;;
81685;SDS011;71102;50.960;6.888;2023-12-14T06:57:09;41.10;;;16.30;;
81685;SDS011;71102;50.960;6.888;2023-12-14T06:59:34;42.03;;;15.50;;
81685;SDS011;71102;50.960;6.888;2023-12-14T07:01:59;40.23;;;15.50;;
81685;SDS011;71102;50.960;6.888;2023-12-14T07:04:25;40.40;;;15.67;;
81685;SDS011;71102;50.960;6.888;2023-12-14T07:06:50;36.37;;;12.87;;
81685;SDS011;71102;50.960;6.888;2023-12-14T07:09:16;33.40;;;14.25;;
81685;SDS011;71102;50.960;6.888;2023-12-14T07:11:41;29.83;;;13.53;;
81685;SDS011;71102;50.960;6.888;2023-12-14T07:14:06;44.10;;;16.10;;
81685;SDS011;71102;50.960;6.888;2023-12-14T07:16:31;40.03;;;16.20;;
81685;SDS011;71102;50.960;6.888;2023-12-14T07:18:56;36.90;;;15.43;;
81685;SDS011;71102;50.960;6.888;2023-12-14T07:21:22;39.10;;;14.37;;
81685;SDS011;71102;50.960;6.888;2023-12-14T07:23:47;42.87;;;16.87;;
81685;SDS011;71102;50.960;6.888;2023-12-14T07:26:12;40.40;;;14.40;;
81685;SDS011;71102;50.960;6.888;2023-12-14T07:28:37;36.53;;;13.93;;
81685;SDS011;71102;50.960;6.888;2023-12-14T07:31:02;37.67;;;16.33;;
81685;SDS011;71102;50.960;6.888;2023-12-14T07:33:28;36.90;;;14.90;;
81685;SDS011;71102;50.960;6.888;2023-12-14T07:35:53;39.23;;;14.80;;
81685;SDS011;71102;50.960;6.888;2023-12-14T07:38:18;41.87;;;14.63;;
81685;SDS011;71102;50.960;6.888;2023-12-14T07:40:43;41.03;;;14.80;;
81685;SDS011;71102;50.960;6.888;2023-12-14T07:43:08;37.23;;;13.83;;
81685;SDS011;71102;50.960;6.888;2023-12-14T07:45:34;37.47;;;13.70;;
81685;SDS011;71102;50.960;6.888;2023-12-14T07:47:59;33.53;;;12.67;;
81685;SDS011;71102;50.960;6.888;2023-12-14T07:50:25;29.50;;;13.27;;
81685;SDS011;71102;50.960;6.888;2023-12-14T07:52:50;29.08;;;12.88;;
81685;SDS011;71102;50.960;6.888;2023-12-14T07:55:15;32.20;;;13.00;;
81685;SDS011;71102;50.960;6.888;2023-12-14T07:57:40;28.23;;;11.77;;
81685;SDS011;71102;50.960;6.888;2023-12-14T08:00:06;21.37;;;9.57;;
81685;SDS011;71102;50.960;6.888;2023-12-14T08:02:31;29.33;;;11.35;;
81685;SDS011;71102;50.960;6.888;2023-12-14T08:04:56;23.90;;;10.60;;
81685;SDS011;71102;50.960;6.888;2023-12-14T08:07:22;25.57;;;9.83;;
81685;SDS011;71102;50.960;6.888;2023-12-14T08:09:47;27.47;;;10.47;;
81685;SDS011;71102;50.960;6.888;2023-12-14T08:12:12;23.90;;;9.67;;
81685;SDS011;71102;50.960;6.888;2023-12-14T08:14:37;22.13;;;9.97;;
81685;SDS011;71102;50.960;6.888;2023-12-14T08:17:02;24.07;;;9.50;;
81685;SDS011;71102;50.960;6.888;2023-12-14T08:19:28;23.87;;;9.90;;
81685;SDS011;71102;50.960;6.888;2023-12-14T08:21:53;22.65;;;9.75;;
81685;SDS011;71102;50.960;6.888;2023-12-14T08:24:18;22.23;;;9.53;;
81685;SDS011;71102;50.960;6.888;2023-12-14T08:26:43;20.10;;;7.93;;
81685;SDS011;71102;50.960;6.888;2023-12-14T08:29:09;19.50;;;8.50;;
81685;SDS011;71102;50.960;6.888;2023-12-14T08:31:34;21.77;;;8.97;;
81685;SDS011;71102;50.960;6.888;2023-12-14T08:33:59;22.20;;;9.32;;
81685;SDS011;71102;50.960;6.888;2023-12-14T08:36:24;22.07;;;8.87;;
81685;SDS011;71102;50.960;6.888;2023-12-14T08:38:50;21.17;;;9.30;;
81685;SDS011;71102;50.960;6.888;2023-12-14T08:41:15;18.33;;;8.27;;
81685;SDS011;71102;50.960;6.888;2023-12-14T08:43:40;21.25;;;8.80;;
81685;SDS011;71102;50.960;6.888;2023-12-14T08:46:05;21.53;;;9.07;;
81685;SDS011;71102;50.960;6.888;2023-12-14T08:48:31;21.47;;;8.93;;
81685;SDS011;71102;50.960;6.888;2023-12-14T08:50:56;19.73;;;8.00;;
81685;SDS011;71102;50.960;6.888;2023-12-14T08:53:21;19.57;;;8.83;;
81685;SDS011;71102;50.960;6.888;2023-12-14T08:55:46;21.63;;;10.07;;
81685;SDS011;71102;50.960;6.888;2023-12-14T08:58:11;20.07;;;9.13;;
81685;SDS011;71102;50.960;6.888;2023-12-14T09:00:36;22.37;;;10.00;;
81685;SDS011;71102;50.960;6.888;2023-12-14T09:03:02;23.77;;;9.43;;
81685;SDS011;71102;50.960;6.888;2023-12-14T09:05:27;22.03;;;9.47;;
81685;SDS011;71102;50.960;6.888;2023-12-14T09:07:52;22.00;;;9.80;;
81685;SDS011;71102;50.960;6.888;2023-12-14T09:10:17;22.13;;;10.13;;
81685;SDS011;71102;50.960;6.888;2023-12-14T09:12:42;23.83;;;10.97;;
81685;SDS011;71102;50.960;6.888;2023-12-14T09:15:08;28.80;;;10.77;;
81685;SDS011;71102;50.960;6.888;2023-12-14T09:17:33;22.25;;;10.45;;
81685;SDS011;71102;50.960;6.888;2023-12-14T09:19:59;26.73;;;10.77;;
81685;SDS011;71102;50.960;6.888;2023-12-14T09:22:24;26.02;;;11.60;;
81685;SDS011;71102;50.960;6.888;2023-12-14T09:24:49;30.40;;;12.97;;
81685;SDS011;71102;50.960;6.888;2023-12-14T09:27:15;30.80;;;13.10;;
81685;SDS011;71102;50.960;6.888;2023-12-14T09:29:40;29.10;;;12.53;;
81685;SDS011;71102;50.960;6.888;2023-12-14T09:32:07;28.40;;;12.83;;
81685;SDS011;71102;50.960;6.888;2023-12-14T09:34:32;27.83;;;11.65;;
81685;SDS011;71102;50.960;6.888;2023-12-14T09:36:57;31.87;;;11.93;;
81685;SDS011;71102;50.960;6.888;2023-12-14T09:39:23;26.67;;;11.57;;
81685;SDS011;71102;50.960;6.888;2023-12-14T09:41:48;25.97;;;11.37;;
81685;SDS011;71102;50.960;6.888;2023-12-14T09:44:15;25.42;;;10.68;;
81685;SDS011;71102;50.960;6.888;2023-12-14T09:46:40;28.80;;;11.83;;
81685;SDS011;71102;50.960;6.888;2023-12-14T09:49:06;26.48;;;11.75;;
81685;SDS011;71102;50.960;6.888;2023-12-14T09:51:31;26.63;;;11.88;;
81685;SDS011;71102;50.960;6.888;2023-12-14T09:53:57;24.53;;;11.40;;
81685;SDS011;71102;50.960;6.888;2023-12-14T09:56:22;26.38;;;11.73;;
81685;SDS011;71102;50.960;6.888;2023-12-14T09:58:47;27.97;;;11.20;;
81685;SDS011;71102;50.960;6.888;2023-12-14T10:01:25;28.00;;;11.83;;
81685;SDS011;71102;50.960;6.888;2023-12-14T10:03:50;24.67;;;11.10;;
81685;SDS011;71102;50.960;6.888;2023-12-14T10:06:31;27.42;;;11.63;;
81685;SDS011;71102;50.960;6.888;2023-12-14T10:08:56;26.67;;;11.97;;
81685;SDS011;71102;50.960;6.888;2023-12-14T10:11:21;26.13;;;11.30;;
81685;SDS011;71102;50.960;6.888;2023-12-14T10:13:47;22.97;;;10.97;;
81685;SDS011;71102;50.960;6.888;2023-12-14T10:16:12;24.10;;;11.70;;
81685;SDS011;71102;50.960;6.888;2023-12-14T10:18:37;21.97;;;10.10;;
81685;SDS011;71102;50.960;6.888;2023-12-14T10:21:02;26.47;;;11.07;;
81685;SDS011;71102;50.960;6.888;2023-12-14T10:23:28;24.20;;;10.43;;
81685;SDS011;71102;50.960;6.888;2023-12-14T10:25:53;23.52;;;11.15;;
81685;SDS011;71102;50.960;6.888;2023-12-14T10:28:18;20.50;;;10.13;;
81685;SDS011;71102;50.960;6.888;2023-12-14T10:30:43;23.57;;;10.50;;
81685;SDS011;71102;50.960;6.888;2023-12-14T10:33:09;25.00;;;11.27;;
81685;SDS011;71102;50.960;6.888;2023-12-14T10:35:34;25.37;;;11.57;;
81685;SDS011;71102;50.960;6.888;2023-12-14T10:38:01;26.27;;;11.80;;
81685;SDS011;71102;50.960;6.888;2023-12-14T10:40:27;24.55;;;12.48;;
81685;SDS011;71102;50.960;6.888;2023-12-14T10:42:53;27.23;;;11.95;;
81685;SDS011;71102;50.960;6.888;2023-12-14T10:45:20;26.00;;;11.93;;
81685;SDS011;71102;50.960;6.888;2023-12-14T10:47:47;29.73;;;13.50;;
81685;SDS011;71102;50.960;6.888;2023-12-14T10:50:13;28.15;;;12.95;;
81685;SDS011;71102;50.960;6.888;2023-12-14T10:52:38;28.33;;;12.13;;
81685;SDS011;71102;50.960;6.888;2023-12-14T10:55:04;24.75;;;11.10;;
81685;SDS011;71102;50.960;6.888;2023-12-14T10:57:31;25.33;;;12.45;;
81685;SDS011;71102;50.960;6.888;2023-12-14T11:00:02;28.07;;;13.57;;
81685;SDS011;71102;50.960;6.888;2023-12-14T11:02:27;24.92;;;11.68;;
81685;SDS011;71102;50.960;6.888;2023-12-14T11:05:02;24.17;;;11.50;;
81685;SDS011;71102;50.960;6.888;2023-12-14T11:10:28;22.65;;;10.82;;
81685;SDS011;71102;50.960;6.888;2023-12-14T11:13:04;24.73;;;12.10;;
81685;SDS011;71102;50.960;6.888;2023-12-14T11:15:33;22.73;;;11.57;;
81685;SDS011;71102;50.960;6.888;2023-12-14T11:20:39;24.25;;;11.27;;
81685;SDS011;71102;50.960;6.888;2023-12-14T11:25:40;22.23;;;10.93;;
81685;SDS011;71102;50.960;6.888;2023-12-14T11:28:06;24.67;;;12.10;;
81685;SDS011;71102;50.960;6.888;2023-12-14T11:30:31;23.70;;;11.43;;
81685;SDS011;71102;50.960;6.888;2023-12-14T11:32:57;21.20;;;10.77;;
81685;SDS011;71102;50.960;6.888;2023-12-14T11:35:22;21.55;;;10.68;;
81685;SDS011;71102;50.960;6.888;2023-12-14T11:37:47;22.37;;;10.07;;
81685;SDS011;71102;50.960;6.888;2023-12-14T11:40:12;24.10;;;11.37;;
81685;SDS011;71102;50.960;6.888;2023-12-14T11:42:38;21.40;;;10.50;;
81685;SDS011;71102;50.960;6.888;2023-12-14T11:45:03;22.83;;;10.10;;
81685;SDS011;71102;50.960;6.888;2023-12-14T11:47:28;22.85;;;9.95;;
81685;SDS011;71102;50.960;6.888;2023-12-14T11:49:53;21.30;;;9.90;;
81685;SDS011;71102;50.960;6.888;2023-12-14T11:52:19;22.17;;;10.23;;
81685;SDS011;71102;50.960;6.888;2023-12-14T11:54:44;21.27;;;9.70;;
81685;SDS011;71102;50.960;6.888;2023-12-14T11:57:09;22.60;;;10.63;;
81685;SDS011;71102;50.960;6.888;2023-12-14T11:59:35;21.15;;;10.50;;
81685;SDS011;71102;50.960;6.888;2023-12-14T12:02:01;24.57;;;11.97;;
81685;SDS011;71102;50.960;6.888;2023-12-14T12:04:26;21.58;;;10.60;;
81685;SDS011;71102;50.960;6.888;2023-12-14T12:06:58;23.60;;;10.60;;
81685;SDS011;71102;50.960;6.888;2023-12-14T12:09:44;25.42;;;12.15;;
81685;SDS011;71102;50.960;6.888;2023-12-14T12:12:09;22.10;;;11.32;;
81685;SDS011;71102;50.960;6.888;2023-12-14T12:14:35;24.58;;;10.40;;
81685;SDS011;71102;50.960;6.888;2023-12-14T12:17:00;23.60;;;10.85;;
81685;SDS011;71102;50.960;6.888;2023-12-14T12:19:25;21.50;;;9.97;;
81685;SDS011;71102;50.960;6.888;2023-12-14T12:21:51;22.63;;;10.97;;
81685;SDS011;71102;50.960;6.888;2023-12-14T12:24:16;22.37;;;10.47;;
81685;SDS011;71102;50.960;6.888;2023-12-14T12:26:41;22.53;;;10.20;;
81685;SDS011;71102;50.960;6.888;2023-12-14T12:29:06;20.77;;;9.97;;
81685;SDS011;71102;50.960;6.888;2023-12-14T12:31:32;20.83;;;9.63;;
81685;SDS011;71102;50.960;6.888;2023-12-14T12:33:57;19.63;;;9.33;;
81685;SDS011;71102;50.960;6.888;2023-12-14T12:36:22;19.50;;;8.97;;
81685;SDS011;71102;50.960;6.888;2023-12-14T12:38:47;19.30;;;8.87;;
81685;SDS011;71102;50.960;6.888;2023-12-14T12:41:12;23.30;;;9.53;;
81685;SDS011;71102;50.960;6.888;2023-12-14T12:43:38;18.50;;;8.85;;
81685;SDS011;71102;50.960;6.888;2023-12-14T12:46:03;20.67;;;9.20;;
81685;SDS011;71102;50.960;6.888;2023-12-14T12:48:28;20.48;;;8.85;;
81685;SDS011;71102;50.960;6.888;2023-12-14T12:50:53;19.30;;;9.50;;
81685;SDS011;71102;50.960;6.888;2023-12-14T12:53:20;17.15;;;8.00;;
81685;SDS011;71102;50.960;6.888;2023-12-14T12:55:45;18.03;;;8.67;;
81685;SDS011;71102;50.960;6.888;2023-12-14T12:58:10;17.40;;;7.53;;
81685;SDS011;71102;50.960;6.888;2023-12-14T13:00:35;16.30;;;8.13;;
81685;SDS011;71102;50.960;6.888;2023-12-14T13:03:01;17.20;;;8.57;;
81685;SDS011;71102;50.960;6.888;2023-12-14T13:05:26;17.57;;;8.33;;
81685;SDS011;71102;50.960;6.888;2023-12-14T13:07:51;14.93;;;8.67;;
81685;SDS011;71102;50.960;6.888;2023-12-14T13:10:16;15.87;;;7.30;;
81685;SDS011;71102;50.960;6.888;2023-12-14T13:12:41;17.57;;;8.00;;
81685;SDS011;71102;50.960;6.888;2023-12-14T13:15:07;17.57;;;7.67;;
81685;SDS011;71102;50.960;6.888;2023-12-14T13:17:32;17.58;;;8.45;;
81685;SDS011;71102;50.960;6.888;2023-12-14T13:19:57;17.07;;;8.70;;
81685;SDS011;71102;50.960;6.888;2023-12-14T13:22:22;16.13;;;8.27;;
81685;SDS011;71102;50.960;6.888;2023-12-14T13:24:48;17.83;;;8.10;;
81685;SDS011;71102;50.960;6.888;2023-12-14T13:27:13;15.53;;;7.87;;
81685;SDS011;71102;50.960;6.888;2023-12-14T13:29:38;15.67;;;7.63;;
81685;SDS011;71102;50.960;6.888;2023-12-14T13:32:03;16.93;;;7.90;;
81685;SDS011;71102;50.960;6.888;2023-12-14T13:34:28;17.17;;;7.57;;
81685;SDS011;71102;50.960;6.888;2023-12-14T13:36:54;16.70;;;8.20;;
81685;SDS011;71102;50.960;6.888;2023-12-14T13:39:19;15.70;;;8.38;;
81685;SDS011;71102;50.960;6.888;2023-12-14T13:41:45;14.77;;;6.90;;
81685;SDS011;71102;50.960;6.888;2023-12-14T13:44:10;16.50;;;8.13;;
81685;SDS011;71102;50.960;6.888;2023-12-14T13:46:35;13.37;;;7.67;;
81685;SDS011;71102;50.960;6.888;2023-12-14T13:49:00;15.67;;;7.93;;
81685;SDS011;71102;50.960;6.888;2023-12-14T13:51:25;16.73;;;8.27;;
81685;SDS011;71102;50.960;6.888;2023-12-14T13:53:51;16.47;;;7.50;;
81685;SDS011;71102;50.960;6.888;2023-12-14T13:56:17;13.00;;;6.45;;
81685;SDS011;71102;50.960;6.888;2023-12-14T13:58:42;15.00;;;7.37;;
81685;SDS011;71102;50.960;6.888;2023-12-14T14:01:07;17.30;;;7.67;;
81685;SDS011;71102;50.960;6.888;2023-12-14T14:03:35;14.57;;;7.33;;
81685;SDS011;71102;50.960;6.888;2023-12-14T14:06:01;14.02;;;6.90;;
81685;SDS011;71102;50.960;6.888;2023-12-14T14:08:26;13.85;;;6.55;;
81685;SDS011;71102;50.960;6.888;2023-12-14T14:10:51;12.60;;;6.77;;
81685;SDS011;71102;50.960;6.888;2023-12-14T14:13:17;12.23;;;5.50;;
81685;SDS011;71102;50.960;6.888;2023-12-14T14:15:42;13.87;;;6.30;;
81685;SDS011;71102;50.960;6.888;2023-12-14T14:18:07;12.97;;;5.67;;
81685;SDS011;71102;50.960;6.888;2023-12-14T14:20:32;13.00;;;6.17;;